logo
Search for airport 
image banner adimage banner adimage banner ad
image banner ad

MNPC - Puerto Cabezas

Located in Raan, Nicaragua

ICAO - MNPC, IATA - PUZ

Data provided by Airmate  

General information

Coordinates: N14°2'46" W83°23'16"
Elevation is 52 feet MSL.
 
View others Airports in Atlantico Norte

Operational data

Special qualification required
Current time UTC:
Current local time:
Weather
TAF: MNPC 132100Z 1400/1424 04010KT 7000 HZ SCT016 TEMPO 1404/1412 35006KT BKN017 TEMPO 1413/1421 05020KT SCT016TCU
View NOTAMs / SUP AIP / TFR affecting this airport [VIEW]
Communications frequencies: [VIEW]

Runways:

RWY identifierQFULength (ft)Width (ft)SurfaceLDA (ft)
0992°8130167ASP
27272°8130167ASP

Airport contact information

Address: Raan Nicaragua

Satellite view of MNPC